RJFZ(METAR)
12/04 19:00
METAR RJFZ 041000Z VRB02KT 9999 FEW020 BKN150 09/06 Q1024 RMK 1CU020
7AC150 A3024=
戻る
トップページへ戻る
IMOC Co,.Ltd.